Nearby METAR Reports

 

KSJC - San Jose, California, USA
Distance from station: NE 14km
Aktualizace: 19/01/2018 01:53
Slabý déšt, Mlha, Zataženo
Slabý déšt, Mlha, Zataženo
 Wind from NW
Vítr: NW 13 km/h
Teplota: 14°C
Rosný bod: 13°C
Vlhkost: 94%
Tlak: 1016.9 hPa
Souhrn: Slabý déšt, Mlha
Clouds: Zataženo
Visibility: 6 km
Cloud details: Few Clouds 30 m
Skoro zataženo 488 m
Zataženo 1524 m
2018/01/19 00:53 KSJC 190053Z 32007KT 4SM -RA BR FEW001 BKN016 OVC050 14/13 A3003 RMK AO2 RAB24 SLP168 VIS N 1 1/2 P0001 T01390128
KNUQ - Moffett Nas/Mtn, California, USA
Distance from station: N 14km
Aktualizace: 19/01/2018 01:56
Slabý déšt, Zataženo
Slabý déšt, Zataženo
 Wind from W
Vítr: W 7 km/h
Teplota: 13°C
Rosný bod: 12°C
Vlhkost: 94%
Tlak: 1016.9 hPa
Souhrn: Slabý déšt
Clouds: Zataženo
Visibility: 16 km
Cloud details: Zataženo 945 m
2018/01/19 00:56 KNUQ 190056Z AUTO 27004KT 10SM -RA OVC031 13/12 A3003 RMK AO2 SLP173 P0000 T01280117
 
KPAO - Palo Alto, California, USA
Distance from station: NNW 23km
Aktualizace: 19/01/2018 00:47
Neaktuální
Mlha, Zataženo
Mlha, Zataženo
 Wind from WNW
Vítr: WNW 15 km/h
Souhrn: Mlha
Clouds: Zataženo
Visibility: 10 km
Cloud details: Few Clouds 366 m
Skoro zataženo 610 m
Zataženo 1524 m
2018/01/18 23:47 KPAO 182347Z 29008KT 6SM BR FEW012 BKN020 OVC050 15/-- A3002
KRHV - San Jose/Reid, California, USA
Distance from station: ENE 19km
Aktualizace: 19/01/2018 01:47
Srážky, Zataženo
Srážky, Zataženo
 Wind from N
Vítr: N 13 km/h
Teplota: 14°C
Rosný bod: 13°C
Vlhkost: 94%
Tlak: 1016.3 hPa
Souhrn: Srážky
Clouds: Zataženo
Visibility: 3 km
Cloud details: Skoro zataženo 244 m
Zataženo 305 m
2018/01/19 00:47 KRHV 190047Z 35007KT 2SM RA BKN008 OVC010 14/13 A3001
 
KOAK - Oakland, California, USA
Distance from station: NNW 50km
Aktualizace: 19/01/2018 02:11
Slabý déšt, Mlha, Zataženo
Slabý déšt, Mlha, Zataženo
 Wind from W
Vítr: W 15 km/h
Teplota: 12°C
Rosný bod: 11°C
Vlhkost: 94%
Tlak: 1016.9 hPa
Souhrn: Slabý déšt, Mlha
Clouds: Zataženo
Visibility: 8 km
Cloud details: Polojasno 244 m
Skoro zataženo 549 m
Zataženo 1067 m
2018/01/19 01:11 KOAK 190111Z 26008KT 5SM -RA BR SCT008 BKN018 OVC035 12/11 A3003 RMK AO2 P0000 T01220111
KSQL - San Carlos Airpo, California, USA
Distance from station: NW 34km
Aktualizace: 19/01/2018 01:49
Mlha, Zataženo
Mlha, Zataženo
 Wind from W
Vítr: W 13 km/h
Teplota: 13°C
Rosný bod: 12°C
Vlhkost: 94%
Tlak: 1017.3 hPa
Souhrn: Mlha
Clouds: Zataženo
Visibility: 13 km
Cloud details: Few Clouds 975 m
Zataženo 1189 m
2018/01/19 00:49 KSQL 190049Z 26007KT 8SM BR FEW032 OVC039 13/12 A3004
 
KSFO - San Francisco, California, USA
Distance from station: NW 49km
Aktualizace: 19/01/2018 01:56
Slabý déšt, Mlha, Zataženo
Slabý déšt, Mlha, Zataženo
 Wind from W
Vítr: W 11 km/h
Teplota: 13°C
Rosný bod: 11°C
Vlhkost: 88%
Tlak: 1016.9 hPa
Souhrn: Slabý déšt, Mlha
Clouds: Zataženo
Visibility: 5 km
Cloud details: Polojasno 213 m
Skoro zataženo 396 m
Zataženo 518 m
2018/01/19 00:56 KSFO 190056Z 27006KT 3SM -RA BR SCT007 BKN013 OVC017 13/11 A3003 RMK AO2 RAB26 SLP168 P0000 T01280111
KE16 - San Martin, California, USA
Distance from station: ESE 43km
Aktualizace: 19/01/2018 01:50
Zataženo
Zataženo
 Wind from SSW
Vítr: SSW 13 km/h
Teplota: 15°C
Rosný bod: 13°C
Vlhkost: 88%
Tlak: 1017.6 hPa
Clouds: Zataženo
Visibility: 14 km
Cloud details: Few Clouds 1189 m
Polojasno 1402 m
Zataženo 2134 m
2018/01/19 00:50 KE16 190050Z AUTO 20007KT 9SM FEW039 SCT046 OVC070 15/13 A3005 RMK AO2
 
KWVI - Watsonville, California, USA
Distance from station: SSE 44km
Aktualizace: 19/01/2018 02:13
Zataženo
Zataženo
 Wind from WSW
Vítr: WSW 9 km/h
Teplota: 13°C
Rosný bod: 13°C
Vlhkost: 100%
Tlak: 1017.3 hPa
Clouds: Zataženo
Visibility: 14 km
Cloud details: Zataženo 122 m
2018/01/19 01:13 KWVI 190113Z AUTO 25005KT 9SM OVC004 13/13 A3004 RMK AO2 CIG 003V008 T01280128
KHAF - Half Moon Bay, California, USA
Distance from station: WNW 50km
Aktualizace: 19/01/2018 02:15
Slabý déšt, Zataženo
Slabý déšt, Zataženo
 Wind from W
Vítr: W 15 km/h
Teplota: 12°C
Rosný bod: 12°C
Vlhkost: 100%
Tlak: 1016.6 hPa
Souhrn: Slabý déšt
Clouds: Zataženo
Visibility: 2 km
Cloud details: Zataženo 91 m
2018/01/19 01:15 KHAF 190115Z AUTO 28008KT 1/2SM -RA OVC003 12/12 A3002 RMK AO2
 
KHWD - Hayward, California, USA
Distance from station: N 44km
Aktualizace: 19/01/2018 01:54
Mlha, Zataženo
Mlha, Zataženo
 Wind from WNW
Vítr: WNW 15 km/h
Teplota: 13°C
Rosný bod: 11°C
Vlhkost: 88%
Tlak: 1016.9 hPa
Souhrn: Mlha
Clouds: Zataženo
Visibility: 10 km
Cloud details: Polojasno 274 m
Zataženo 1158 m
2018/01/19 00:54 KHWD 190054Z 29008KT 6SM BR SCT009 OVC038 13/11 A3003 RMK AO2 RAE35 SLP179 P0000 T01280106
KLVK - Livermore, California, USA
Distance from station: NNE 51km
Aktualizace: 19/01/2018 02:00
Slabý déšt, Mlha, Zataženo
Slabý déšt, Mlha, Zataženo
 Wind from W
Vítr: W 13 km/h
Teplota: 12°C
Rosný bod: 12°C
Vlhkost: 100%
Tlak: 1016.6 hPa
Souhrn: Slabý déšt, Mlha
Clouds: Zataženo
Visibility: 10 km
Cloud details: Few Clouds 396 m
Polojasno 579 m
Zataženo 823 m
2018/01/19 01:00 KLVK 190100Z 27007KT 6SM -RA BR FEW013 SCT019 OVC027 12/12 A3002 RMK AO2 P0000 T01170117